Adrian, Illinois
Current Conditions -  °F | °C
As of 4:55 PM on Thursday 23 Oct 2014 (Local Time) from KFSW Reporting Station
Overcast Overcast  
Wind Chill: 17°   Ceiling: 7500
Heat Index: 17°   Visibility: 10mi
Dew Point: 11°   Wind: 6mph
Humidity: 68%   Direction: 200°SSW
Pressure: 30.04"   Gusts: NA
Location:  40.52°N, 91.17°W
Report Text: KFSW 232155Z AUTO 20005KT 10SM OVC075 17/11 A3004 RMK AO2
Loading
Personal Weather Stations






























Interactive Weather Map
Tropical Storm Tracking
New forecast layout! Learn more

10-Day Weather Forecast

Advertisements
Track Severe Weather on mobile